テヘラン の空港の天気 - METARとTAF

メヘラーバード国際空港(テヘラン) ( OIII / THR ) - イラン テヘラン
飛行場実況気象(Metar)
観測時間08/07 01:30 IRDT (08/06 21:00 UTC)
風向・風速西 6m/s
視程10km以上
天気現象
少しの雲 雲底高度 2740m
気温21℃
湿度56%
気圧1011hPa
METAROIII 062100Z 28012KT 9999 FEW090 21/12 Q1011 A2986
過去の天気等 Google飛行場航空写真 Wunderground天気予報

過去48時間のMETAR

飛行場予報(TAF)
発表時間: 8/06 21:45 IRDT (8/06 17:15 UTC)
予報対象時間: 6日22時 IRDT ~ 8日4時 IRDT
風向・風速西北西 5m/s
視程8000m
少しの雲 雲底高度 1220m
全天の4割程度の雲 雲底高度 3050m
6日22時 IRDT ~ 7日7時 IRDT に一時的に
風向・風速北 9m/s
少しの積乱雲 雲底高度 1070m
全天の4割程度の雲 雲底高度 1220m
全天の4割程度の雲 雲底高度 2740m
7日14時 IRDT ~ 7日20時 IRDT に一時的に
風向・風速南西 8m/s
少しの塔状積雲 雲底高度 1070m
全天の4割程度の雲 雲底高度 1220m
全天の4割程度の雲 雲底高度 2740m
TAF OIII 061715Z 0618/0724 29010KT 8000 FEW040 SCT100
TEMPO 0618/0703 35018KT FEW035CB SCT040 SCT090
TEMPO 0710/0716 23016KT FEW035TCU SCT040 SCT090